KMMI/MMI METAR and TAF weather

Enter ICAO airport designator
Station Type Date Time Source
KMMI METAR 2019/08/17 10:35 UTC NOAA

KMMI 171035Z AUTO 00000KT 9SM CLR 18/18 A3000 RMK A01


Station Type Date Time Source
KMMI Decoded METAR 2019/08/17 10:35 UTC NOAA

Station name not available
Aug 17, 2019 - 06:35 AM EDT / 2019.08.17 1035 UTC
Wind: Calm:0
Visibility: 9 mile(s):0
Sky conditions: clear
Temperature: 64 F (18 C)
Dew Point: 64 F (18 C)
Relative Humidity: 100%
Pressure (altimeter): 30 in. Hg (1015 hPa)
ob: KMMI 171035Z AUTO 00000KT 9SM CLR 18/18 A3000 RMK A01
cycle: 10

Station Type Date Time Source
KMMI TAF UTC NOAA

Error!

Example: see airport list